Have a Safe July 4th! 

Flight Track Log - Related Links

Times and Time Zones

All times are in EDT time to prevent confusion due to time zone crossing. See the AWE648 flight status page for this flight to view local times or setup timezone preferences in your user account.

Time Position Orientation Groundspeed Altitude Reporting Facility
EDT Latitude Longitude Course Direction KTS MPH feet Rate Location/Type
Fri 01:17:13 AM 37.6667 -122.3500 90° East 161 185 2,500  Level Northern Cal TRACON
Fri 01:18:13 AM 37.7000 -122.3333 22° Northeast 176 203 3,400 789 Climbing Northern Cal TRACON
Fri 01:19:07 AM 37.7436 -122.3558 338° Northwest 194 223 4,000 1,252 Climbing Oakland Center
Fri 01:20:08 AM 37.8100 -122.3750 347° North 247 284 5,800 2,115 Climbing Oakland Center
Fri 01:21:09 AM 37.8447 -122.2906 62° Northeast 284 327 8,300 2,262 Climbing Oakland Center
Fri 01:22:00 AM 37.9667 -122.0012 90° East  Level FlightAware Approximate
Fri 01:22:10 AM 37.8631 -122.1886 77° East 295 339 10,400  Level Oakland Center
Fri 01:23:10 AM 37.8844 -122.0736 77° East 332 382 11,300 992 Climbing Oakland Center
Fri 01:24:11 AM 37.9133 -121.9128 77° East 391 450 12,400 1,328 Climbing Oakland Center
Fri 01:25:12 AM 37.9394 -121.7681 77° East 418 481 14,000 1,475 Climbing Oakland Center
Fri 01:26:13 AM 37.9656 -121.6217 77° East 426 490 15,400 1,785 Climbing Oakland Center
Fri 01:27:13 AM 37.9919 -121.4728 77° East 433 498 17,600 1,736 Climbing Oakland Center
Fri 01:28:14 AM 38.0150 -121.3461 77° East 428 493 18,900 1,131 Climbing Oakland Center
Fri 01:29:15 AM 38.0461 -121.1661 78° East 439 505 19,900 1,131 Climbing Oakland Center
Fri 01:30:16 AM 38.0739 -121.0078 77° East 460 529 21,200 1,131 Climbing Oakland Center
Fri 01:31:17 AM 38.0956 -120.8497 80° East 460 529 22,200 1,041 Climbing Oakland Center
Fri 01:32:17 AM 38.1181 -120.6894 80° East 463 533 23,300 928 Climbing Oakland Center
Fri 01:34:44 AM 38.1694 -120.2856 81° East 475 547 25,400 837 Climbing Salt Lake Center
Fri 01:35:45 AM 38.1911 -120.1214 80° East 475 547 26,200 942 Climbing Salt Lake Center
Fri 01:36:45 AM 38.2111 -119.9575 81° East 471 542 27,300 1,091 Climbing Salt Lake Center
Fri 01:37:46 AM 38.2319 -119.7964 81° East 465 535 28,400 1,033 Climbing Salt Lake Center
Fri 01:38:47 AM 38.2517 -119.6392 81° East 454 522 29,400 912 Climbing Salt Lake Center
Fri 01:39:51 AM 38.2753 -119.4569 81° East 455 524 30,300 720 Climbing Oakland Center
Fri 01:40:52 AM 38.2919 -119.3239 81° East 451 519 30,900 344 Climbing Oakland Center
Fri 01:41:53 AM 38.3144 -119.1331 81° East 456 525 31,000 50 Climbing Oakland Center
Fri 01:42:53 AM 38.3339 -118.9706 81° East 463 533 31,000  Level Oakland Center
Fri 01:43:54 AM 38.3525 -118.8106 82° East 460 529 31,000  Level Oakland Center
Fri 01:44:55 AM 38.3844 -118.6531 75° East 460 529 31,000  Level Oakland Center
Fri 01:45:55 AM 38.4169 -118.4978 75° East 457 526 31,000  Level Oakland Center
Fri 01:46:56 AM 38.4497 -118.3414 75° East 458 527 31,000  Level Oakland Center
Fri 01:47:57 AM 38.4819 -118.1867 75° East 455 524 31,000  Level Oakland Center
Fri 01:48:57 AM 38.5144 -118.0311 75° East 456 525 31,000  Level Oakland Center
Fri 01:49:58 AM 38.5469 -117.8739 75° East 456 525 31,000  Level Oakland Center
Fri 01:50:59 AM 38.5786 -117.7164 76° East 455 524 31,000  Level Oakland Center
Fri 01:51:54 AM 38.6092 -117.5586 76° East 454 522 31,000  Level Salt Lake Center
Fri 01:52:55 AM 38.6419 -117.4008 75° East 456 525 31,000  Level Salt Lake Center
Fri 01:53:56 AM 38.6725 -117.2419 76° East 457 526 31,000  Level Salt Lake Center
Fri 01:54:56 AM 38.7033 -117.0842 76° East 456 525 31,000  Level Salt Lake Center
Fri 01:55:57 AM 38.7347 -116.9247 76° East 457 526 31,000  Level Salt Lake Center
Fri 01:56:57 AM 38.7664 -116.7650 76° East 459 528 31,000  Level Salt Lake Center
Fri 01:57:58 AM 38.7964 -116.6039 77° East 463 533 31,000  Level Salt Lake Center
Fri 01:58:58 AM 38.8275 -116.4447 76° East 460 529 31,000  Level Salt Lake Center
Fri 01:59:59 AM 38.8575 -116.2861 76° East 459 528 31,000  Level Salt Lake Center
Fri 02:01:00 AM 38.8875 -116.1256 76° East 460 529 31,000  Level Salt Lake Center
Fri 02:02:00 AM 38.9172 -115.9658 77° East 460 529 31,000  Level Salt Lake Center
Fri 02:03:01 AM 38.9469 -115.8069 76° East 458 527 31,000  Level Salt Lake Center
Fri 02:04:01 AM 38.9764 -115.6478 77° East 459 528 31,000  Level Salt Lake Center
Fri 02:05:02 AM 39.0053 -115.4878 77° East 459 528 31,000  Level Salt Lake Center
Fri 02:06:02 AM 39.0311 -115.3450 77° East 457 526 31,000  Level Salt Lake Center
Fri 02:07:03 AM 39.0611 -115.1831 77° East 464 534 31,000 195 Level Salt Lake Center
Fri 02:08:05 AM 39.0947 -114.9917 77° East 459 528 31,400 492 Climbing Salt Lake Center
Fri 02:09:05 AM 39.1225 -114.8322 77° East 458 527 32,000 545 Climbing Salt Lake Center
Fri 02:10:06 AM 39.1517 -114.6728 77° East 458 527 32,500 496 Climbing Salt Lake Center
Fri 02:11:06 AM 39.1786 -114.5131 78° East 457 526 33,000 248 Climbing Salt Lake Center
Fri 02:12:07 AM 39.2042 -114.3547 78° East 453 521 33,000  Level Salt Lake Center
Fri 02:13:07 AM 39.2336 -114.1917 77° East 463 533 33,000  Level Salt Lake Center
Fri 02:14:07 AM 39.2606 -114.0308 78° East 459 528 33,000  Level Salt Lake Center
Fri 02:15:08 AM 39.2875 -113.8683 78° East 461 531 33,000  Level Salt Lake Center
Fri 02:16:08 AM 39.3144 -113.7067 78° East 461 531 33,000  Level Salt Lake Center
Fri 02:17:09 AM 39.3408 -113.5453 78° East 459 528 33,000  Level Salt Lake Center
Fri 02:18:09 AM 39.3667 -113.3825 78° East 461 531 33,000  Level Salt Lake Center
Fri 02:19:09 AM 39.3925 -113.2214 78° East 459 528 33,000  Level Salt Lake Center
Fri 02:20:10 AM 39.4186 -113.0603 78° East 458 527 33,000  Level Salt Lake Center
Fri 02:21:10 AM 39.4439 -112.8989 78° East 458 527 33,000  Level Salt Lake Center
Fri 02:22:11 AM 39.4686 -112.7378 79° East 458 527 33,000  Level Salt Lake Center
Fri 02:23:11 AM 39.4956 -112.5775 78° East 459 528 33,000  Level Salt Lake Center
Fri 02:24:12 AM 39.5203 -112.4164 79° East 458 527 33,000  Level Salt Lake Center
Fri 02:25:12 AM 39.5453 -112.2564 78° East 457 526 33,000  Level Salt Lake Center
Fri 02:26:12 AM 39.5681 -112.0961 80° East 455 524 33,000  Level Salt Lake Center
Fri 02:27:13 AM 39.5925 -111.9350 79° East 457 526 33,000  Level Salt Lake Center
Fri 02:28:13 AM 39.6167 -111.7733 79° East 459 528 33,000  Level Salt Lake Center
Fri 02:29:14 AM 39.6397 -111.6117 79° East 459 528 33,000  Level Salt Lake Center
Fri 02:30:14 AM 39.6628 -111.4497 79° East 458 527 33,000  Level Salt Lake Center
Fri 02:31:15 AM 39.6872 -111.2736 80° East 457 526 33,000  Level Salt Lake Center
Fri 02:32:15 AM 39.7097 -111.1183 79° East 457 526 33,000  Level Salt Lake Center
Fri 02:33:15 AM 39.7353 -110.9369 80° East 458 527 33,000  Level Salt Lake Center
Fri 02:34:16 AM 39.7567 -110.7819 80° East 456 525 33,000  Level Salt Lake Center
Fri 02:35:16 AM 39.7781 -110.6247 80° East 459 528 33,000  Level Salt Lake Center
Fri 02:36:17 AM 39.8033 -110.4456 80° East 453 521 33,000  Level Salt Lake Center
Fri 02:37:17 AM 39.8292 -110.2922 78° East 452 520 33,000  Level Salt Lake Center
Fri 02:38:17 AM 39.8519 -110.1367 79° East 456 525 33,000  Level Salt Lake Center
Fri 02:39:18 AM 39.8750 -109.9836 79° East 452 520 33,000  Level Salt Lake Center
Fri 02:40:18 AM 39.9025 -109.8033 79° East 453 521 33,000  Level Salt Lake Center
Fri 02:41:19 AM 39.9256 -109.6478 79° East 456 525 33,000  Level Salt Lake Center
Fri 02:42:01 AM 39.9406 -109.5447 79° East 452 520 33,000  Level Denver Center
Fri 02:43:01 AM 39.9675 -109.3644 79° East 452 520 33,000  Level Denver Center
Fri 02:44:02 AM 39.9900 -109.2114 79° East 447 514 33,000  Level Denver Center
Fri 02:45:02 AM 40.0122 -109.0575 79° East 448 516 33,000  Level Denver Center
Fri 02:45:20 AM 40.0197 -109.0078 79° East 448 516 33,000  Level Salt Lake Center
Fri 02:46:21 AM 40.0417 -108.8539 79° East 447 514 33,000  Level Salt Lake Center
Fri 02:47:03 AM 40.0589 -108.7239 80° East 448 516 33,000  Level Denver Center
Fri 02:48:03 AM 40.0806 -108.5689 80° East 451 519 33,000  Level Denver Center
Fri 02:49:04 AM 40.1022 -108.4153 80° East 448 516 33,000  Level Denver Center
Fri 02:50:04 AM 40.1228 -108.2614 80° East 449 517 33,000  Level Denver Center
Fri 02:51:04 AM 40.1478 -108.0800 80° East 452 520 33,000  Level Denver Center
Fri 02:52:05 AM 40.1686 -107.9261 80° East 449 517 33,000  Level Denver Center
Fri 02:53:05 AM 40.1889 -107.7700 80° East 454 522 33,000  Level Denver Center
Fri 02:54:06 AM 40.2128 -107.5894 80° East 451 519 33,000  Level Denver Center
Fri 02:55:06 AM 40.2322 -107.4328 81° East 455 524 33,000  Level Denver Center
Fri 02:56:06 AM 40.2533 -107.2767 80° East 456 525 33,000  Level Denver Center
Fri 02:57:07 AM 40.2722 -107.1183 81° East 460 529 33,000  Level Denver Center
Fri 02:58:07 AM 40.2972 -106.9322 80° East 464 534 33,000  Level Denver Center
Fri 02:59:07 AM 40.3156 -106.7800 81° East 467 537 33,000  Level Denver Center
Fri 03:00:08 AM 40.3367 -106.6125 81° East 464 534 33,000  Level Denver Center
Fri 03:01:08 AM 40.3586 -106.4244 81° East 465 535 33,000  Level Denver Center
Fri 03:02:09 AM 40.3781 -106.2656 81° East 462 532 33,000  Level Denver Center
Fri 03:03:09 AM 40.3986 -106.0886 81° East 464 534 33,000  Level Denver Center
Fri 03:04:09 AM 40.4181 -105.9192 81° East 464 534 33,000  Level Denver Center
Fri 03:05:10 AM 40.4361 -105.7511 82° East 461 531 33,000  Level Denver Center
Fri 03:06:10 AM 40.4558 -105.5819 81° East 462 532 33,000  Level Denver Center
Fri 03:07:11 AM 40.4714 -105.4408 82° East 464 534 33,000  Level Denver Center
Fri 03:08:11 AM 40.4903 -105.2742 81° East 456 525 33,000  Level Denver Center
Fri 03:09:11 AM 40.5086 -105.1014 82° East 467 537 33,000  Level Denver Center
Fri 03:10:12 AM 40.5267 -104.9336 82° East 463 533 33,000  Level Denver Center
Fri 03:11:12 AM 40.5450 -104.7639 82° East 464 534 33,000  Level Denver Center
Fri 03:12:12 AM 40.5633 -104.5919 82° East 468 539 33,000  Level Denver Center
Fri 03:13:13 AM 40.5803 -104.4192 83° East 472 543 33,000  Level Denver Center
Fri 03:14:13 AM 40.5961 -104.2506 83° East 463 533 33,000  Level Denver Center
Fri 03:15:14 AM 40.6144 -104.0808 82° East 459 528 33,000  Level Denver Center
Fri 03:16:14 AM 40.6300 -103.9189 83° East 445 512 33,000  Level Denver Center
Fri 03:17:14 AM 40.6456 -103.7494 83° East 458 527 33,000  Level Denver Center
Fri 03:18:15 AM 40.6617 -103.5806 83° East 460 529 33,000  Level Denver Center
Fri 03:19:15 AM 40.6781 -103.4125 83° East 458 527 33,000  Level Denver Center
Fri 03:20:15 AM 40.6931 -103.2436 83° East 458 527 33,000 149 Level Denver Center
Fri 03:21:16 AM 40.7089 -103.0756 83° East 458 527 33,300 595 Climbing Denver Center
Fri 03:22:16 AM 40.7217 -102.9153 84° East 457 526 34,200 645 Climbing Denver Center
Fri 03:23:17 AM 40.7356 -102.7600 83° East 449 517 34,600 397 Climbing Denver Center
Fri 03:24:17 AM 40.7514 -102.5781 83° East 448 516 35,000 200 Climbing Denver Center
Fri 03:25:17 AM 40.7636 -102.4200 84° East 451 519 35,000  Level Denver Center
Fri 03:26:18 AM 40.7775 -102.2586 83° East 460 529 35,000  Level Denver Center
Fri 03:27:18 AM 40.7928 -102.0667 84° East 469 540 35,000  Level Denver Center
Fri 03:28:18 AM 40.8067 -101.9017 84° East 473 544 35,000  Level Denver Center
Fri 03:29:19 AM 40.8203 -101.7394 84° East 466 536 35,000  Level Denver Center
Fri 03:30:19 AM 40.8331 -101.5761 84° East 468 539 35,000  Level Denver Center
Fri 03:31:20 AM 40.8472 -101.3853 84° East 467 537 35,000  Level Denver Center
Fri 03:32:20 AM 40.8594 -101.2239 84° East 463 533 35,000  Level Denver Center
Fri 03:33:20 AM 40.8703 -101.0617 85° East 464 534 35,000  Level Denver Center
Fri 03:34:21 AM 40.8842 -100.8703 84° East 466 536 35,000  Level Denver Center
Fri 03:35:21 AM 40.8972 -100.7011 84° East 466 536 35,000  Level Denver Center
Fri 03:36:22 AM 40.9081 -100.5361 85° East 463 533 35,000  Level Denver Center
Fri 03:37:22 AM 40.9189 -100.3717 85° East 466 536 35,000  Level Denver Center
Fri 03:38:22 AM 40.9292 -100.2089 85° East 465 535 35,000  Level Denver Center
Fri 03:39:23 AM 40.9411 -100.0172 85° East 467 537 35,000  Level Denver Center
Fri 03:40:23 AM 40.9514 -99.8525 85° East 469 540 35,000  Level Denver Center
Fri 03:41:24 AM 40.9625 -99.6733 85° East 471 542 35,000  Level Denver Center
Fri 03:42:24 AM 40.9731 -99.5006 85° East 472 543 35,000  Level Denver Center
Fri 03:43:24 AM 40.9828 -99.3278 86° East 472 543 35,000  Level Denver Center
Fri 03:44:25 AM 40.9919 -99.1533 86° East 476 548 35,000  Level Denver Center
Fri 03:45:02 AM 40.9972 -99.0553 86° East 474 545 35,000 309 Level Minneapolis Center
Fri 03:46:02 AM 41.0058 -98.8836 86° East 471 542 35,500 400 Climbing Minneapolis Center
Fri 03:47:02 AM 41.0164 -98.7122 85° East 468 539 35,800 248 Climbing Minneapolis Center
Fri 03:48:03 AM 41.0244 -98.5408 86° East 467 537 36,000 99 Climbing Minneapolis Center
Fri 03:49:03 AM 41.0317 -98.3742 87° East 471 542 36,000  Level Minneapolis Center
Fri 03:50:03 AM 41.0400 -98.2022 86° East 471 542 36,000  Level Minneapolis Center
Fri 03:51:04 AM 41.0481 -98.0311 86° East 469 540 36,000  Level Minneapolis Center
Fri 03:52:04 AM 41.0550 -97.8600 87° East 466 536 36,000 500 Level Minneapolis Center
Fri 03:53:04 AM 41.0622 -97.6933 87° East 456 525 37,000 500 Climbing Minneapolis Center
Fri 03:54:04 AM 41.0697 -97.5258 87° East 454 522 37,000  Level Minneapolis Center
Fri 03:55:05 AM 41.0758 -97.3472 87° East 464 534 37,000  Level Minneapolis Center
Fri 03:56:05 AM 41.0828 -97.1764 87° East 465 535 37,000  Level Minneapolis Center
Fri 03:57:05 AM 41.0906 -97.0053 86° East 466 536 37,000  Level Minneapolis Center
Fri 03:58:05 AM 41.0961 -96.8356 87° East 464 534 37,000  Level Minneapolis Center
Fri 03:59:06 AM 41.1022 -96.6639 87° East 467 537 37,000  Level Minneapolis Center
Fri 04:00:06 AM 41.1081 -96.4933 87° East 467 537 37,000  Level Minneapolis Center
Fri 04:01:06 AM 41.1128 -96.3264 88° East 465 535 37,000  Level Minneapolis Center
Fri 04:02:07 AM 41.1192 -96.1219 88° East 463 533 37,000  Level Minneapolis Center
Fri 04:03:07 AM 41.1239 -95.9500 88° East 466 536 37,000  Level Minneapolis Center
Fri 04:04:19 AM 41.1281 -95.7792 88° East 465 535 37,000  Level Minneapolis Center
Fri 04:05:20 AM 41.1328 -95.5822 88° East 462 532 37,000  Level Minneapolis Center
Fri 04:06:20 AM 41.1369 -95.4117 88° East 463 533 37,000  Level Minneapolis Center
Fri 04:07:20 AM 41.1411 -95.2397 88° East 466 536 37,000 -400 Level Minneapolis Center
Fri 04:08:20 AM 41.1442 -95.0681 89° East 467 537 36,200 -496 Descending Minneapolis Center
Fri 04:09:21 AM 41.1469 -94.8964 89° East 467 537 36,000 -99 Descending Minneapolis Center
Fri 04:10:21 AM 41.1492 -94.7275 89° East 462 532 36,000  Level Minneapolis Center
Fri 04:11:21 AM 41.1525 -94.5567 88° East 462 532 36,000  Level Minneapolis Center
Fri 04:12:22 AM 41.1553 -94.3828 89° East 469 540 36,000  Level Minneapolis Center
Fri 04:13:22 AM 41.1569 -94.2081 89° East 467 537 36,000  Level Minneapolis Center
Fri 04:14:22 AM 41.1586 -94.0378 89° East 465 535 36,000 -496 Level Minneapolis Center
Fri 04:15:23 AM 41.1597 -93.8700 89° East 460 529 35,000 -496 Descending Minneapolis Center
Fri 04:16:23 AM 41.1611 -93.6983 89° East 465 535 35,000  Level Minneapolis Center
Fri 04:17:23 AM 41.1614 -93.5247 90° East 469 540 35,000  Level Minneapolis Center
Fri 04:18:24 AM 41.1658 -93.3486 88° East 474 545 35,000  Level Minneapolis Center
Fri 04:19:24 AM 41.1658 -93.1786 90° East 466 536 35,000  Level Minneapolis Center
Fri 04:20:25 AM 41.1667 -93.0092 90° East 463 533 35,000  Level Minneapolis Center
Fri 04:21:25 AM 41.1661 -92.8408 90° East 459 528 35,000  Level Minneapolis Center
Fri 04:22:25 AM 41.1675 -92.6708 89° East 461 531 35,000  Level Minneapolis Center
Fri 04:23:25 AM 41.1664 -92.5003 90° East 463 533 35,000  Level Minneapolis Center
Fri 04:23:45 AM 41.1656 -92.4303 91° East 463 533 35,000  Level Chicago Center
Fri 04:24:45 AM 41.1650 -92.2619 90° East 459 528 35,000  Level Chicago Center
Fri 04:25:45 AM 41.1644 -92.0917 90° East 462 532 35,000  Level Chicago Center
Fri 04:26:46 AM 41.1636 -91.9183 90° East 471 542 35,000  Level Chicago Center
Fri 04:27:46 AM 41.1614 -91.7472 91° East 467 537 35,000  Level Chicago Center
Fri 04:28:46 AM 41.1606 -91.5786 90° East 469 540 35,000  Level Chicago Center
Fri 04:29:47 AM 41.1583 -91.4067 91° East 468 539 35,000  Level Chicago Center
Fri 04:30:47 AM 41.1564 -91.2350 91° East 467 537 35,000  Level Chicago Center
Fri 04:31:47 AM 41.1536 -91.0619 91° East 469 540 35,000  Level Chicago Center
Fri 04:32:48 AM 41.1517 -90.8878 91° East 472 543 35,000  Level Chicago Center
Fri 04:33:48 AM 41.1492 -90.7153 91° East 469 540 35,000  Level Chicago Center
Fri 04:34:48 AM 41.1453 -90.5408 92° East 470 541 35,000  Level Chicago Center
Fri 04:35:49 AM 41.1419 -90.3658 91° East 472 543 35,000  Level Chicago Center
Fri 04:36:49 AM 41.1381 -90.1906 92° East 473 544 35,000  Level Chicago Center
Fri 04:37:49 AM 41.1336 -90.0125 92° East 477 549 35,000  Level Chicago Center
Fri 04:38:50 AM 41.1300 -89.8336 91° East 479 551 35,000  Level Chicago Center
Fri 04:39:50 AM 41.1250 -89.6531 92° East 484 557 35,000  Level Chicago Center
Fri 04:40:51 AM 41.1203 -89.4739 92° East 484 557 35,000  Level Chicago Center
Fri 04:41:51 AM 41.1144 -89.2942 92° East 485 558 35,000  Level Chicago Center
Fri 04:42:51 AM 41.1075 -89.1008 93° East 483 556 35,000  Level Chicago Center
Fri 04:43:52 AM 41.1017 -88.9233 92° East 485 558 35,000  Level Chicago Center
Fri 04:44:52 AM 41.0953 -88.7481 93° East 484 557 35,000  Level Chicago Center
Fri 04:45:53 AM 41.0889 -88.5694 93° East 487 560 35,000  Level Chicago Center
Fri 04:46:53 AM 41.0831 -88.3942 92° East 482 555 35,000  Level Chicago Center
Fri 04:47:53 AM 41.0767 -88.2189 93° East 483 556 35,000  Level Chicago Center
Fri 04:48:54 AM 41.0689 -88.0450 93° East 482 555 35,000  Level Chicago Center
Fri 04:49:54 AM 41.0622 -87.8706 93° East 482 555 35,000  Level Chicago Center
Fri 04:50:54 AM 41.0544 -87.6947 93° East 484 557 35,000  Level Chicago Center
Fri 04:51:55 AM 41.0475 -87.5197 93° East 482 555 35,000  Level Chicago Center
Fri 04:52:55 AM 41.0394 -87.3450 93° East 481 554 35,000  Level Chicago Center
Fri 04:53:55 AM 41.0303 -87.1689 94° East 482 555 35,000  Level Chicago Center
Fri 04:54:56 AM 41.0206 -86.9931 94° East 483 556 35,000  Level Chicago Center
Fri 04:55:56 AM 41.0125 -86.8169 93° East 484 557 35,000  Level Chicago Center
Fri 04:56:56 AM 41.0017 -86.6181 94° East 477 549 35,000  Level Chicago Center
Fri 04:57:57 AM 40.9925 -86.4453 94° East 476 548 35,000 50 Level Chicago Center
Fri 04:58:57 AM 40.9836 -86.2736 94° East 471 542 35,100 496 Climbing Chicago Center
Fri 04:59:58 AM 40.9728 -86.1025 95° East 471 542 36,000 645 Climbing Chicago Center
Fri 05:00:58 AM 40.9628 -85.9344 94° East 466 536 36,400 347 Climbing Chicago Center
Fri 05:01:59 AM 40.9522 -85.7669 95° East 462 532 36,700 298 Climbing Chicago Center
Fri 05:02:59 AM 40.9419 -85.5939 94° East 472 543 37,000 150 Climbing Chicago Center
Fri 05:03:59 AM 40.9308 -85.4239 95° East 471 542 37,000  Level Chicago Center
Fri 05:05:00 AM 40.9194 -85.2497 95° East 480 552 37,000  Level Chicago Center
Fri 05:06:00 AM 40.9081 -85.0786 95° East 477 549 37,000  Level Chicago Center
Fri 05:07:01 AM 40.8964 -84.9061 95° East 474 545 37,000  Level Chicago Center
Fri 05:08:01 AM 40.8844 -84.7336 95° East 474 545 37,000  Level Chicago Center
Fri 05:09:01 AM 40.8722 -84.5628 95° East 473 544 37,000  Level Chicago Center
Fri 05:10:02 AM 40.8606 -84.3911 95° East 472 543 37,000  Level Chicago Center
Fri 05:10:40 AM 40.8503 -84.2522 96° East 473 544 37,000  Level Indianapolis Center
Fri 05:11:41 AM 40.8372 -84.0769 96° East 475 547 37,000 -49 Level Indianapolis Center
Fri 05:12:42 AM 40.8239 -83.9025 96° East 474 545 36,900 -50 Descending Indianapolis Center
Fri 05:13:42 AM 40.8100 -83.7289 96° East 470 541 36,900 50 Level Indianapolis Center
Fri 05:14:43 AM 40.7969 -83.5561 96° East 468 539 37,000 67 Climbing Indianapolis Center
Fri 05:15:11 AM 40.7931 -83.4931 95° East 467 537 37,000  Level Cleveland Center
Fri 05:16:11 AM 40.7806 -83.3253 96° East 467 537 37,000  Level Cleveland Center
Fri 05:17:11 AM 40.7636 -83.1519 97° East 467 537 37,000  Level Cleveland Center
Fri 05:18:11 AM 40.7486 -82.9786 96° East 467 537 37,000  Level Cleveland Center
Fri 05:19:11 AM 40.7353 -82.8136 96° East 467 537 37,000  Level Cleveland Center
Fri 05:20:11 AM 40.7175 -82.6458 98° East 467 537 37,000  Level Cleveland Center
Fri 05:21:11 AM 40.7019 -82.4728 97° East 467 537 37,000  Level Cleveland Center
Fri 05:22:11 AM 40.6839 -82.2917 97° East 462 532 37,000  Level Cleveland Center
Fri 05:23:11 AM 40.6694 -82.1242 96° East 462 532 37,000  Level Cleveland Center
Fri 05:24:11 AM 40.6550 -81.9514 96° East 467 537 37,000  Level Cleveland Center
Fri 05:25:11 AM 40.6383 -81.7869 98° East 460 529 37,000  Level Cleveland Center
Fri 05:26:11 AM 40.6233 -81.6172 97° East 460 529 37,000  Level Cleveland Center
Fri 05:27:11 AM 40.6039 -81.4472 99° East 467 537 37,000  Level Cleveland Center
Fri 05:28:11 AM 40.5925 -81.2803 95° East 467 537 37,000  Level Cleveland Center
Fri 05:29:11 AM 40.5808 -81.1106 95° East 467 537 37,000  Level Cleveland Center
Fri 05:30:11 AM 40.5689 -80.9411 95° East 462 532 37,000  Level Cleveland Center
Fri 05:31:11 AM 40.5569 -80.7744 95° East 462 532 37,000  Level Cleveland Center
Fri 05:32:11 AM 40.5444 -80.6050 95° East 462 532 37,000  Level Cleveland Center
Fri 05:33:11 AM 40.5319 -80.4383 96° East 462 532 37,000  Level Cleveland Center
Fri 05:34:11 AM 40.5169 -80.2772 97° East 462 532 37,000  Level Cleveland Center
Fri 05:35:11 AM 40.5039 -80.1106 96° East 462 532 37,000  Level Cleveland Center
Fri 05:36:11 AM 40.4928 -79.9389 95° East 462 532 37,000  Level Cleveland Center
Fri 05:37:11 AM 40.4814 -79.7861 96° East 462 532 37,000  Level Cleveland Center
Fri 05:38:11 AM 40.4675 -79.6225 96° East 457 526 37,000  Level Cleveland Center
Fri 05:39:11 AM 40.4536 -79.4561 96° East 457 526 37,000  Level Cleveland Center
Fri 05:40:11 AM 40.4350 -79.2736 98° East 457 526 37,000  Level Cleveland Center
Fri 05:41:11 AM 40.4203 -79.1078 97° East 462 532 37,000  Level Cleveland Center
Fri 05:42:11 AM 40.4075 -78.9389 96° East 462 532 37,000  Level Cleveland Center
Fri 05:43:11 AM 40.3906 -78.7703 97° East 462 532 37,000  Level Cleveland Center
Fri 05:44:11 AM 40.3753 -78.6044 97° East 462 532 37,000  Level Cleveland Center
Fri 05:45:11 AM 40.3617 -78.4333 96° East 462 532 37,000 -411 Level Cleveland Center
Fri 05:47:21 AM 40.3275 -78.0708 97° East 452 520 35,700 -719 Descending New York Center
Fri 05:48:23 AM 40.3108 -77.9031 97° East 457 526 34,700 -992 Descending New York Center
Fri 05:49:22 AM 40.2939 -77.7297 97° East 467 537 33,700 -1,550 Descending New York Center
Fri 05:50:23 AM 40.2786 -77.5622 97° East 472 543 31,600 -2,150 Descending New York Center
Fri 05:51:22 AM 40.2883 -77.3944 86° East 458 527 29,400 -2,237 Descending New York Center
Fri 05:52:21 AM 40.3097 -77.2331 80° East 452 520 27,200 -2,150 Descending New York Center
Fri 05:53:22 AM 40.3242 -77.0819 83° East 442 509 25,100 -2,000 Descending New York Center
Fri 05:54:21 AM 40.2989 -76.9297 102° East 414 476 23,200 -1,900 Descending New York Center
Fri 05:55:22 AM 40.2728 -76.7861 103° East 414 476 21,300 -1,884 Descending New York Center
Fri 05:56:22 AM 40.2486 -76.6478 103° East 401 461 19,400 -1,714 Descending New York Center
Fri 05:57:21 AM 40.2275 -76.5264 103° East 386 444 17,900 -1,750 Descending New York Center
Fri 05:58:22 AM 40.2008 -76.3828 104° East 371 427 15,900 -1,785 Descending New York Center
Fri 05:59:22 AM 40.1792 -76.2725 104° East 353 406 14,300 -1,686 Descending New York Center
Fri 06:00:23 AM 40.1556 -76.1483 104° East 348 400 12,500 -1,600 Descending New York Center
Fri 06:01:22 AM 40.1319 -76.0244 104° East 336 387 11,100 -1,119 Descending New York Center
Fri 06:02:21 AM 40.1153 -75.9333 103° East 301 346 10,300 -1,350 Descending New York Center
Fri 06:03:22 AM 40.0947 -75.8261 104° East 276 318 8,400 -1,672 Descending New York Center
Fri 06:04:23 AM 40.0797 -75.7408 103° East 271 312 6,900 -1,190 Descending New York Center
Fri 06:05:23 AM 40.0086 -75.6925 152° Southeast 247 284 6,000 -1,017 Descending New York Center
Fri 06:06:21 AM 39.9425 -75.6797 172° South 257 296 4,900 -1,627 Descending New York Center
Fri 06:07:21 AM 39.8953 -75.6114 132° Southeast 226 260 2,800 -1,488 Descending New York Center
Fri 06:08:22 AM 39.8772 -75.5453 110° East 213 245 1,900 -496 Descending New York Center
Fri 06:09:22 AM 39.8436 -75.5022 135° Southeast 175 201 1,800 -50 Descending New York Center
Fri 06:10:22 AM 39.8267 -75.4553 115° Southeast 145 167 1,800  Level New York Center
Fri 06:10:44 AM 39.8333 -75.4333 68° East 143 165 1,800  Level Philadelphia TRACON
Fri 06:11:32 AM 39.8333 -75.4000 90° East 144 166 1,800  Level Philadelphia TRACON

Login

Don't have an account? Register now (free) for customized features, flight alerts, and more!